sensor_id;sensor_type;location;lat;lon;timestamp;temperature;humidity
40059;SHT31;25763;49.972;8.568;2023-12-20T00:01:03;5.29;91.60
40059;SHT31;25763;49.972;8.568;2023-12-20T00:03:28;5.32;91.66
40059;SHT31;25763;49.972;8.568;2023-12-20T00:05:54;5.28;91.62
40059;SHT31;25763;49.972;8.568;2023-12-20T00:08:20;5.29;91.70
40059;SHT31;25763;49.972;8.568;2023-12-20T00:10:46;5.29;91.66
40059;SHT31;25763;49.972;8.568;2023-12-20T00:13:11;5.28;91.66
40059;SHT31;25763;49.972;8.568;2023-12-20T00:15:37;5.26;91.68
40059;SHT31;25763;49.972;8.568;2023-12-20T00:18:02;5.26;91.69
40059;SHT31;25763;49.972;8.568;2023-12-20T00:20:28;5.25;91.71
40059;SHT31;25763;49.972;8.568;2023-12-20T00:22:56;5.30;91.78
40059;SHT31;25763;49.972;8.568;2023-12-20T00:25:25;5.29;91.69
40059;SHT31;25763;49.972;8.568;2023-12-20T00:27:51;5.26;91.75
40059;SHT31;25763;49.972;8.568;2023-12-20T00:30:16;5.28;91.72
40059;SHT31;25763;49.972;8.568;2023-12-20T00:32:42;5.26;91.68
40059;SHT31;25763;49.972;8.568;2023-12-20T00:35:15;5.29;91.66
40059;SHT31;25763;49.972;8.568;2023-12-20T00:37:42;5.30;91.67
40059;SHT31;25763;49.972;8.568;2023-12-20T00:40:07;5.29;91.65
40059;SHT31;25763;49.972;8.568;2023-12-20T00:42:33;5.26;91.72
40059;SHT31;25763;49.972;8.568;2023-12-20T00:44:59;5.23;91.68
40059;SHT31;25763;49.972;8.568;2023-12-20T00:47:25;5.21;91.70
40059;SHT31;25763;49.972;8.568;2023-12-20T00:49:50;5.22;91.71
40059;SHT31;25763;49.972;8.568;2023-12-20T00:52:15;5.19;91.74
40059;SHT31;25763;49.972;8.568;2023-12-20T00:54:43;5.19;91.77
40059;SHT31;25763;49.972;8.568;2023-12-20T00:57:08;5.21;91.77
40059;SHT31;25763;49.972;8.568;2023-12-20T00:59:34;5.18;91.72
40059;SHT31;25763;49.972;8.568;2023-12-20T01:01:59;5.16;91.76
40059;SHT31;25763;49.972;8.568;2023-12-20T01:04:24;5.15;91.80
40059;SHT31;25763;49.972;8.568;2023-12-20T01:06:50;5.15;91.84
40059;SHT31;25763;49.972;8.568;2023-12-20T01:09:15;5.12;91.81
40059;SHT31;25763;49.972;8.568;2023-12-20T01:11:40;5.09;91.89
40059;SHT31;25763;49.972;8.568;2023-12-20T01:14:06;5.11;91.91
40059;SHT31;25763;49.972;8.568;2023-12-20T01:16:31;5.12;91.85
40059;SHT31;25763;49.972;8.568;2023-12-20T01:18:56;5.11;91.89
40059;SHT31;25763;49.972;8.568;2023-12-20T01:21:22;5.12;91.94
40059;SHT31;25763;49.972;8.568;2023-12-20T01:23:47;5.16;91.91
40059;SHT31;25763;49.972;8.568;2023-12-20T01:26:12;5.15;91.90
40059;SHT31;25763;49.972;8.568;2023-12-20T01:28:38;5.12;91.83
40059;SHT31;25763;49.972;8.568;2023-12-20T01:31:03;5.15;91.87
40059;SHT31;25763;49.972;8.568;2023-12-20T01:33:29;5.11;91.92
40059;SHT31;25763;49.972;8.568;2023-12-20T01:35:54;5.13;91.87
40059;SHT31;25763;49.972;8.568;2023-12-20T01:38:20;5.07;91.94
40059;SHT31;25763;49.972;8.568;2023-12-20T01:40:45;5.08;91.95
40059;SHT31;25763;49.972;8.568;2023-12-20T01:43:11;5.12;91.99
40059;SHT31;25763;49.972;8.568;2023-12-20T01:45:39;5.09;91.93
40059;SHT31;25763;49.972;8.568;2023-12-20T01:48:05;5.12;91.99
40059;SHT31;25763;49.972;8.568;2023-12-20T01:50:31;5.12;91.99
40059;SHT31;25763;49.972;8.568;2023-12-20T01:52:58;5.09;91.98
40059;SHT31;25763;49.972;8.568;2023-12-20T01:55:25;5.11;91.97
40059;SHT31;25763;49.972;8.568;2023-12-20T01:57:51;5.13;91.99
40059;SHT31;25763;49.972;8.568;2023-12-20T02:00:17;5.11;91.92
40059;SHT31;25763;49.972;8.568;2023-12-20T02:02:44;5.15;91.96
40059;SHT31;25763;49.972;8.568;2023-12-20T02:05:10;5.11;91.90
40059;SHT31;25763;49.972;8.568;2023-12-20T02:07:36;5.13;91.89
40059;SHT31;25763;49.972;8.568;2023-12-20T02:10:01;5.13;91.91
40059;SHT31;25763;49.972;8.568;2023-12-20T02:12:27;5.15;91.88
40059;SHT31;25763;49.972;8.568;2023-12-20T02:14:52;5.12;91.83
40059;SHT31;25763;49.972;8.568;2023-12-20T02:17:19;5.11;91.89
40059;SHT31;25763;49.972;8.568;2023-12-20T02:19:45;5.11;91.89
40059;SHT31;25763;49.972;8.568;2023-12-20T02:22:11;5.09;91.85
40059;SHT31;25763;49.972;8.568;2023-12-20T02:24:37;5.09;91.89
40059;SHT31;25763;49.972;8.568;2023-12-20T02:27:03;5.11;91.84
40059;SHT31;25763;49.972;8.568;2023-12-20T02:29:30;5.11;91.85
40059;SHT31;25763;49.972;8.568;2023-12-20T02:31:56;5.08;91.85
40059;SHT31;25763;49.972;8.568;2023-12-20T02:34:21;5.11;91.84
40059;SHT31;25763;49.972;8.568;2023-12-20T02:36:46;5.08;91.84
40059;SHT31;25763;49.972;8.568;2023-12-20T02:39:12;5.07;91.79
40059;SHT31;25763;49.972;8.568;2023-12-20T02:41:38;5.09;91.81
40059;SHT31;25763;49.972;8.568;2023-12-20T02:44:03;5.07;91.85
40059;SHT31;25763;49.972;8.568;2023-12-20T02:46:29;5.11;91.78
40059;SHT31;25763;49.972;8.568;2023-12-20T02:48:54;5.13;91.78
40059;SHT31;25763;49.972;8.568;2023-12-20T02:51:19;5.11;91.75
40059;SHT31;25763;49.972;8.568;2023-12-20T02:53:45;5.08;91.73
40059;SHT31;25763;49.972;8.568;2023-12-20T02:56:10;5.07;91.78
40059;SHT31;25763;49.972;8.568;2023-12-20T02:58:35;5.08;91.79
40059;SHT31;25763;49.972;8.568;2023-12-20T03:01:01;5.15;91.74
40059;SHT31;25763;49.972;8.568;2023-12-20T03:03:26;5.12;91.77
40059;SHT31;25763;49.972;8.568;2023-12-20T03:05:51;5.12;91.69
40059;SHT31;25763;49.972;8.568;2023-12-20T03:08:17;5.15;91.71
40059;SHT31;25763;49.972;8.568;2023-12-20T03:10:42;5.12;91.70
40059;SHT31;25763;49.972;8.568;2023-12-20T03:13:07;5.11;91.74
40059;SHT31;25763;49.972;8.568;2023-12-20T03:15:33;5.12;91.71
40059;SHT31;25763;49.972;8.568;2023-12-20T03:17:58;5.11;91.72
40059;SHT31;25763;49.972;8.568;2023-12-20T03:20:24;5.13;91.80
40059;SHT31;25763;49.972;8.568;2023-12-20T03:22:51;5.15;91.74
40059;SHT31;25763;49.972;8.568;2023-12-20T03:25:16;5.16;91.74
40059;SHT31;25763;49.972;8.568;2023-12-20T03:27:42;5.13;91.77
40059;SHT31;25763;49.972;8.568;2023-12-20T03:30:08;5.15;91.77
40059;SHT31;25763;49.972;8.568;2023-12-20T03:32:33;5.15;91.74
40059;SHT31;25763;49.972;8.568;2023-12-20T03:34:58;5.18;91.77
40059;SHT31;25763;49.972;8.568;2023-12-20T03:37:24;5.22;91.79
40059;SHT31;25763;49.972;8.568;2023-12-20T03:39:49;5.22;91.75
40059;SHT31;25763;49.972;8.568;2023-12-20T03:42:14;5.19;91.72
40059;SHT31;25763;49.972;8.568;2023-12-20T03:44:40;5.19;91.79
40059;SHT31;25763;49.972;8.568;2023-12-20T03:47:06;5.21;91.81
40059;SHT31;25763;49.972;8.568;2023-12-20T03:49:31;5.22;91.85
40059;SHT31;25763;49.972;8.568;2023-12-20T03:51:57;5.22;91.83
40059;SHT31;25763;49.972;8.568;2023-12-20T03:54:22;5.23;91.85
40059;SHT31;25763;49.972;8.568;2023-12-20T03:56:47;5.23;91.84
40059;SHT31;25763;49.972;8.568;2023-12-20T03:59:13;5.25;91.82
40059;SHT31;25763;49.972;8.568;2023-12-20T04:01:43;5.26;91.85
40059;SHT31;25763;49.972;8.568;2023-12-20T04:04:10;5.28;91.80
40059;SHT31;25763;49.972;8.568;2023-12-20T04:06:35;5.30;91.84
40059;SHT31;25763;49.972;8.568;2023-12-20T04:09:01;5.30;91.80
40059;SHT31;25763;49.972;8.568;2023-12-20T04:11:26;5.33;91.81
40059;SHT31;25763;49.972;8.568;2023-12-20T04:13:52;5.33;91.78
40059;SHT31;25763;49.972;8.568;2023-12-20T04:16:17;5.35;91.76
40059;SHT31;25763;49.972;8.568;2023-12-20T04:18:42;5.32;91.79
40059;SHT31;25763;49.972;8.568;2023-12-20T04:21:08;5.30;91.75
40059;SHT31;25763;49.972;8.568;2023-12-20T04:23:33;5.30;91.77
40059;SHT31;25763;49.972;8.568;2023-12-20T04:25:58;5.33;91.75
40059;SHT31;25763;49.972;8.568;2023-12-20T04:28:24;5.36;91.76
40059;SHT31;25763;49.972;8.568;2023-12-20T04:30:49;5.36;91.76
40059;SHT31;25763;49.972;8.568;2023-12-20T04:33:15;5.38;91.74
40059;SHT31;25763;49.972;8.568;2023-12-20T04:35:40;5.35;91.76
40059;SHT31;25763;49.972;8.568;2023-12-20T04:38:07;5.33;91.76
40059;SHT31;25763;49.972;8.568;2023-12-20T04:40:33;5.32;91.80
40059;SHT31;25763;49.972;8.568;2023-12-20T04:42:58;5.40;91.82
40059;SHT31;25763;49.972;8.568;2023-12-20T04:45:23;5.35;91.82
40059;SHT31;25763;49.972;8.568;2023-12-20T04:47:50;5.36;91.81
40059;SHT31;25763;49.972;8.568;2023-12-20T04:50:15;5.38;91.79
40059;SHT31;25763;49.972;8.568;2023-12-20T04:52:41;5.38;91.86
40059;SHT31;25763;49.972;8.568;2023-12-20T04:55:07;5.33;91.81
40059;SHT31;25763;49.972;8.568;2023-12-20T04:57:34;5.32;91.74
40059;SHT31;25763;49.972;8.568;2023-12-20T04:59:59;5.30;91.72
40059;SHT31;25763;49.972;8.568;2023-12-20T05:02:24;5.29;91.65
40059;SHT31;25763;49.972;8.568;2023-12-20T05:04:50;5.29;91.57
40059;SHT31;25763;49.972;8.568;2023-12-20T05:07:15;5.26;91.55
40059;SHT31;25763;49.972;8.568;2023-12-20T05:09:40;5.22;91.54
40059;SHT31;25763;49.972;8.568;2023-12-20T05:12:06;5.19;91.56
40059;SHT31;25763;49.972;8.568;2023-12-20T05:14:32;5.22;91.62
40059;SHT31;25763;49.972;8.568;2023-12-20T05:16:57;5.22;91.71
40059;SHT31;25763;49.972;8.568;2023-12-20T05:19:24;5.25;91.73
40059;SHT31;25763;49.972;8.568;2023-12-20T05:21:49;5.28;91.74
40059;SHT31;25763;49.972;8.568;2023-12-20T05:24:15;5.33;91.62
40059;SHT31;25763;49.972;8.568;2023-12-20T05:26:40;5.32;91.46
40059;SHT31;25763;49.972;8.568;2023-12-20T05:29:05;5.30;91.34
40059;SHT31;25763;49.972;8.568;2023-12-20T05:31:31;5.32;91.13
40059;SHT31;25763;49.972;8.568;2023-12-20T05:33:57;5.26;91.03
40059;SHT31;25763;49.972;8.568;2023-12-20T05:36:22;5.22;90.90
40059;SHT31;25763;49.972;8.568;2023-12-20T05:38:47;5.18;90.82
40059;SHT31;25763;49.972;8.568;2023-12-20T05:41:13;5.16;90.78
40059;SHT31;25763;49.972;8.568;2023-12-20T05:43:39;5.13;90.67
40059;SHT31;25763;49.972;8.568;2023-12-20T05:46:04;5.09;90.64
40059;SHT31;25763;49.972;8.568;2023-12-20T05:48:29;5.08;90.60
40059;SHT31;25763;49.972;8.568;2023-12-20T05:50:55;5.11;90.64
40059;SHT31;25763;49.972;8.568;2023-12-20T05:53:20;5.15;90.60
40059;SHT31;25763;49.972;8.568;2023-12-20T05:55:45;5.16;90.58
40059;SHT31;25763;49.972;8.568;2023-12-20T05:58:11;5.18;90.51
40059;SHT31;25763;49.972;8.568;2023-12-20T06:00:36;5.15;90.44
40059;SHT31;25763;49.972;8.568;2023-12-20T06:03:01;5.13;90.37
40059;SHT31;25763;49.972;8.568;2023-12-20T06:05:27;5.05;90.33
40059;SHT31;25763;49.972;8.568;2023-12-20T06:07:52;5.01;90.23
40059;SHT31;25763;49.972;8.568;2023-12-20T06:10:18;5.00;90.21
40059;SHT31;25763;49.972;8.568;2023-12-20T06:12:43;4.94;90.22
40059;SHT31;25763;49.972;8.568;2023-12-20T06:15:09;4.91;90.20
40059;SHT31;25763;49.972;8.568;2023-12-20T06:17:34;4.83;90.11
40059;SHT31;25763;49.972;8.568;2023-12-20T06:20:00;4.79;90.18
40059;SHT31;25763;49.972;8.568;2023-12-20T06:22:26;4.75;90.18
40059;SHT31;25763;49.972;8.568;2023-12-20T06:24:51;4.69;90.13
40059;SHT31;25763;49.972;8.568;2023-12-20T06:27:16;4.60;90.13
40059;SHT31;25763;49.972;8.568;2023-12-20T06:29:42;4.55;90.15
40059;SHT31;25763;49.972;8.568;2023-12-20T06:32:09;4.56;90.06
40059;SHT31;25763;49.972;8.568;2023-12-20T06:34:35;4.51;89.97
40059;SHT31;25763;49.972;8.568;2023-12-20T06:37:00;4.45;89.88
40059;SHT31;25763;49.972;8.568;2023-12-20T06:39:25;4.41;89.74
40059;SHT31;25763;49.972;8.568;2023-12-20T06:41:51;4.36;89.70
40059;SHT31;25763;49.972;8.568;2023-12-20T06:44:16;4.32;89.63
40059;SHT31;25763;49.972;8.568;2023-12-20T06:46:42;4.28;89.62
40059;SHT31;25763;49.972;8.568;2023-12-20T06:49:08;4.25;89.69
40059;SHT31;25763;49.972;8.568;2023-12-20T06:51:33;4.22;89.66
40059;SHT31;25763;49.972;8.568;2023-12-20T06:53:58;4.21;89.61
40059;SHT31;25763;49.972;8.568;2023-12-20T06:56:25;4.20;89.70
40059;SHT31;25763;49.972;8.568;2023-12-20T06:58:50;4.16;89.62
40059;SHT31;25763;49.972;8.568;2023-12-20T07:01:16;4.13;89.62
40059;SHT31;25763;49.972;8.568;2023-12-20T07:03:42;4.10;89.59
40059;SHT31;25763;49.972;8.568;2023-12-20T07:06:08;4.14;89.55
40059;SHT31;25763;49.972;8.568;2023-12-20T07:08:33;4.10;89.55
40059;SHT31;25763;49.972;8.568;2023-12-20T07:10:58;4.07;89.45
40059;SHT31;25763;49.972;8.568;2023-12-20T07:13:24;4.06;89.35
40059;SHT31;25763;49.972;8.568;2023-12-20T07:15:50;4.06;89.29
40059;SHT31;25763;49.972;8.568;2023-12-20T07:18:15;4.06;89.22
40059;SHT31;25763;49.972;8.568;2023-12-20T07:20:40;4.10;89.17
40059;SHT31;25763;49.972;8.568;2023-12-20T07:23:06;4.10;89.09
40059;SHT31;25763;49.972;8.568;2023-12-20T07:25:31;4.13;89.02
40059;SHT31;25763;49.972;8.568;2023-12-20T07:27:58;4.13;88.98
40059;SHT31;25763;49.972;8.568;2023-12-20T07:30:23;4.13;88.92
40059;SHT31;25763;49.972;8.568;2023-12-20T07:32:48;4.13;88.85
40059;SHT31;25763;49.972;8.568;2023-12-20T07:35:15;4.18;88.80
40059;SHT31;25763;49.972;8.568;2023-12-20T07:37:40;4.20;88.73
40059;SHT31;25763;49.972;8.568;2023-12-20T07:40:06;4.28;88.63
40059;SHT31;25763;49.972;8.568;2023-12-20T07:42:32;4.29;88.50
40059;SHT31;25763;49.972;8.568;2023-12-20T07:44:58;4.32;88.47
40059;SHT31;25763;49.972;8.568;2023-12-20T07:47:23;4.35;88.31
40059;SHT31;25763;49.972;8.568;2023-12-20T07:49:50;4.38;88.23
40059;SHT31;25763;49.972;8.568;2023-12-20T07:52:17;4.44;88.21
40059;SHT31;25763;49.972;8.568;2023-12-20T07:54:44;4.42;88.09
40059;SHT31;25763;49.972;8.568;2023-12-20T07:57:10;4.46;88.04
40059;SHT31;25763;49.972;8.568;2023-12-20T07:59:36;4.44;87.95
40059;SHT31;25763;49.972;8.568;2023-12-20T08:02:01;4.45;87.90
40059;SHT31;25763;49.972;8.568;2023-12-20T08:04:26;4.46;87.85
40059;SHT31;25763;49.972;8.568;2023-12-20T08:06:52;4.45;87.77
40059;SHT31;25763;49.972;8.568;2023-12-20T08:09:17;4.48;87.81
40059;SHT31;25763;49.972;8.568;2023-12-20T08:11:46;4.58;87.76
40059;SHT31;25763;49.972;8.568;2023-12-20T08:14:12;4.65;87.72
40059;SHT31;25763;49.972;8.568;2023-12-20T08:16:38;4.69;87.73
40059;SHT31;25763;49.972;8.568;2023-12-20T08:19:03;4.83;87.75
40059;SHT31;25763;49.972;8.568;2023-12-20T08:21:28;4.93;87.58
40059;SHT31;25763;49.972;8.568;2023-12-20T08:23:54;5.00;87.16
40059;SHT31;25763;49.972;8.568;2023-12-20T08:26:20;5.04;87.06
40059;SHT31;25763;49.972;8.568;2023-12-20T08:28:46;5.00;86.88
40059;SHT31;25763;49.972;8.568;2023-12-20T08:31:15;4.95;86.77
40059;SHT31;25763;49.972;8.568;2023-12-20T08:33:41;5.00;86.70
40059;SHT31;25763;49.972;8.568;2023-12-20T08:36:07;5.00;86.63
40059;SHT31;25763;49.972;8.568;2023-12-20T08:38:32;4.98;86.62
40059;SHT31;25763;49.972;8.568;2023-12-20T08:40:57;5.05;86.57
40059;SHT31;25763;49.972;8.568;2023-12-20T08:43:22;5.15;86.48
40059;SHT31;25763;49.972;8.568;2023-12-20T08:45:48;5.29;86.51
40059;SHT31;25763;49.972;8.568;2023-12-20T08:48:13;5.46;86.51
40059;SHT31;25763;49.972;8.568;2023-12-20T08:50:38;5.50;85.87
40059;SHT31;25763;49.972;8.568;2023-12-20T08:53:04;5.50;85.80
40059;SHT31;25763;49.972;8.568;2023-12-20T08:55:29;5.53;85.75
40059;SHT31;25763;49.972;8.568;2023-12-20T08:57:56;5.51;85.91
40059;SHT31;25763;49.972;8.568;2023-12-20T09:00:21;5.53;85.83
40059;SHT31;25763;49.972;8.568;2023-12-20T09:02:49;5.50;85.82
40059;SHT31;25763;49.972;8.568;2023-12-20T09:05:15;5.56;85.77
40059;SHT31;25763;49.972;8.568;2023-12-20T09:07:40;5.57;85.77
40059;SHT31;25763;49.972;8.568;2023-12-20T09:10:06;5.59;85.87
40059;SHT31;25763;49.972;8.568;2023-12-20T09:12:31;5.64;85.85
40059;SHT31;25763;49.972;8.568;2023-12-20T09:14:56;5.67;85.79
40059;SHT31;25763;49.972;8.568;2023-12-20T09:17:22;5.71;85.79
40059;SHT31;25763;49.972;8.568;2023-12-20T09:19:48;5.77;85.66
40059;SHT31;25763;49.972;8.568;2023-12-20T09:22:14;5.78;85.55
40059;SHT31;25763;49.972;8.568;2023-12-20T09:24:39;5.82;85.35
40059;SHT31;25763;49.972;8.568;2023-12-20T09:27:05;5.91;85.45
40059;SHT31;25763;49.972;8.568;2023-12-20T09:29:31;5.97;85.28
40059;SHT31;25763;49.972;8.568;2023-12-20T09:31:56;5.99;84.81
40059;SHT31;25763;49.972;8.568;2023-12-20T09:34:22;6.05;84.84
40059;SHT31;25763;49.972;8.568;2023-12-20T09:36:48;6.09;84.88
40059;SHT31;25763;49.972;8.568;2023-12-20T09:39:14;6.07;84.64
40059;SHT31;25763;49.972;8.568;2023-12-20T09:41:44;6.07;84.77
40059;SHT31;25763;49.972;8.568;2023-12-20T09:44:13;6.10;84.57
40059;SHT31;25763;49.972;8.568;2023-12-20T09:46:43;6.12;84.19
40059;SHT31;25763;49.972;8.568;2023-12-20T09:49:08;6.17;84.08
40059;SHT31;25763;49.972;8.568;2023-12-20T09:51:36;6.20;83.87
40059;SHT31;25763;49.972;8.568;2023-12-20T09:54:03;6.22;83.76
40059;SHT31;25763;49.972;8.568;2023-12-20T09:56:29;6.29;83.75
40059;SHT31;25763;49.972;8.568;2023-12-20T09:58:55;6.30;83.56
40059;SHT31;25763;49.972;8.568;2023-12-20T10:01:21;6.33;83.68
40059;SHT31;25763;49.972;8.568;2023-12-20T10:03:46;6.33;83.62
40059;SHT31;25763;49.972;8.568;2023-12-20T10:06:12;6.40;83.42
40059;SHT31;25763;49.972;8.568;2023-12-20T10:08:38;6.41;83.48
40059;SHT31;25763;49.972;8.568;2023-12-20T10:11:05;6.44;83.19
40059;SHT31;25763;49.972;8.568;2023-12-20T10:13:30;6.44;83.22
40059;SHT31;25763;49.972;8.568;2023-12-20T10:15:56;6.48;83.17
40059;SHT31;25763;49.972;8.568;2023-12-20T10:18:22;6.55;83.40
40059;SHT31;25763;49.972;8.568;2023-12-20T10:20:48;6.50;83.15
40059;SHT31;25763;49.972;8.568;2023-12-20T10:23:15;6.54;83.27
40059;SHT31;25763;49.972;8.568;2023-12-20T10:25:41;6.54;83.34
40059;SHT31;25763;49.972;8.568;2023-12-20T10:28:15;6.54;83.16
40059;SHT31;25763;49.972;8.568;2023-12-20T10:30:44;6.57;83.24
40059;SHT31;25763;49.972;8.568;2023-12-20T10:33:09;6.61;82.96
40059;SHT31;25763;49.972;8.568;2023-12-20T10:35:38;6.67;82.92
40059;SHT31;25763;49.972;8.568;2023-12-20T10:38:04;6.61;82.70
40059;SHT31;25763;49.972;8.568;2023-12-20T10:40:31;6.72;82.89
40059;SHT31;25763;49.972;8.568;2023-12-20T10:42:58;6.72;82.94
40059;SHT31;25763;49.972;8.568;2023-12-20T10:45:23;6.67;82.66
40059;SHT31;25763;49.972;8.568;2023-12-20T10:47:50;6.71;82.57
40059;SHT31;25763;49.972;8.568;2023-12-20T10:50:16;6.81;82.35
40059;SHT31;25763;49.972;8.568;2023-12-20T10:52:42;7.00;82.10
40059;SHT31;25763;49.972;8.568;2023-12-20T10:55:08;7.23;81.74
40059;SHT31;25763;49.972;8.568;2023-12-20T10:57:35;7.28;80.75
40059;SHT31;25763;49.972;8.568;2023-12-20T11:00:01;7.23;80.91
40059;SHT31;25763;49.972;8.568;2023-12-20T11:02:39;7.09;80.90
40059;SHT31;25763;49.972;8.568;2023-12-20T11:05:21;7.03;81.12
40059;SHT31;25763;49.972;8.568;2023-12-20T11:07:52;6.97;80.50
40059;SHT31;25763;49.972;8.568;2023-12-20T11:13:10;7.27;79.67
40059;SHT31;25763;49.972;8.568;2023-12-20T11:15:37;7.32;79.36
40059;SHT31;25763;49.972;8.568;2023-12-20T11:18:03;7.42;79.60
40059;SHT31;25763;49.972;8.568;2023-12-20T11:20:37;7.49;78.63
40059;SHT31;25763;49.972;8.568;2023-12-20T11:23:03;7.48;78.61
40059;SHT31;25763;49.972;8.568;2023-12-20T11:25:28;7.39;78.66
40059;SHT31;25763;49.972;8.568;2023-12-20T11:28:14;7.42;79.03
40059;SHT31;25763;49.972;8.568;2023-12-20T11:30:50;7.46;78.65
40059;SHT31;25763;49.972;8.568;2023-12-20T11:33:16;7.62;78.57
40059;SHT31;25763;49.972;8.568;2023-12-20T11:35:42;7.62;78.27
40059;SHT31;25763;49.972;8.568;2023-12-20T11:38:09;7.65;78.28
40059;SHT31;25763;49.972;8.568;2023-12-20T11:40:35;7.63;78.42
40059;SHT31;25763;49.972;8.568;2023-12-20T11:43:01;7.79;78.30
40059;SHT31;25763;49.972;8.568;2023-12-20T11:45:26;8.03;77.73
40059;SHT31;25763;49.972;8.568;2023-12-20T11:47:53;8.05;77.11
40059;SHT31;25763;49.972;8.568;2023-12-20T11:50:22;7.97;76.66
40059;SHT31;25763;49.972;8.568;2023-12-20T11:52:48;7.94;77.04
40059;SHT31;25763;49.972;8.568;2023-12-20T11:55:14;7.80;76.57
40059;SHT31;25763;49.972;8.568;2023-12-20T11:57:39;7.80;77.45
40059;SHT31;25763;49.972;8.568;2023-12-20T12:00:05;7.69;76.83
40059;SHT31;25763;49.972;8.568;2023-12-20T12:02:31;7.62;76.07
40059;SHT31;25763;49.972;8.568;2023-12-20T12:04:57;7.60;76.71
40059;SHT31;25763;49.972;8.568;2023-12-20T12:07:24;7.56;76.55
40059;SHT31;25763;49.972;8.568;2023-12-20T12:09:49;7.53;76.12
40059;SHT31;25763;49.972;8.568;2023-12-20T12:12:15;7.52;76.09
40059;SHT31;25763;49.972;8.568;2023-12-20T12:14:41;7.51;75.96
40059;SHT31;25763;49.972;8.568;2023-12-20T12:17:13;7.53;76.13
40059;SHT31;25763;49.972;8.568;2023-12-20T12:19:42;7.59;75.48
40059;SHT31;25763;49.972;8.568;2023-12-20T12:22:09;7.66;75.34
40059;SHT31;25763;49.972;8.568;2023-12-20T12:24:46;7.94;74.82
40059;SHT31;25763;49.972;8.568;2023-12-20T12:27:15;8.12;74.05
40059;SHT31;25763;49.972;8.568;2023-12-20T12:29:41;8.25;73.21
40059;SHT31;25763;49.972;8.568;2023-12-20T12:32:25;8.38;72.98
40059;SHT31;25763;49.972;8.568;2023-12-20T12:34:50;8.33;72.81
40059;SHT31;25763;49.972;8.568;2023-12-20T12:37:15;8.52;71.99
40059;SHT31;25763;49.972;8.568;2023-12-20T12:39:41;8.54;71.53
40059;SHT31;25763;49.972;8.568;2023-12-20T12:42:06;8.61;71.71
40059;SHT31;25763;49.972;8.568;2023-12-20T12:44:31;8.63;71.32
40059;SHT31;25763;49.972;8.568;2023-12-20T12:46:57;8.49;71.41
40059;SHT31;25763;49.972;8.568;2023-12-20T12:49:22;8.54;71.44
40059;SHT31;25763;49.972;8.568;2023-12-20T12:51:48;8.36;71.63
40059;SHT31;25763;49.972;8.568;2023-12-20T12:54:13;8.32;72.41
40059;SHT31;25763;49.972;8.568;2023-12-20T12:56:41;8.22;72.42
40059;SHT31;25763;49.972;8.568;2023-12-20T12:59:06;8.18;72.92
40059;SHT31;25763;49.972;8.568;2023-12-20T13:01:31;8.24;72.97
40059;SHT31;25763;49.972;8.568;2023-12-20T13:03:57;8.33;72.72
40059;SHT31;25763;49.972;8.568;2023-12-20T13:06:22;8.35;72.64
40059;SHT31;25763;49.972;8.568;2023-12-20T13:08:48;8.39;73.08
40059;SHT31;25763;49.972;8.568;2023-12-20T13:11:13;8.40;72.87
40059;SHT31;25763;49.972;8.568;2023-12-20T13:13:39;8.52;73.01
40059;SHT31;25763;49.972;8.568;2023-12-20T13:16:04;8.45;72.71
40059;SHT31;25763;49.972;8.568;2023-12-20T13:18:30;8.43;73.19
40059;SHT31;25763;49.972;8.568;2023-12-20T13:20:55;8.43;73.31
40059;SHT31;25763;49.972;8.568;2023-12-20T13:23:21;8.39;73.24
40059;SHT31;25763;49.972;8.568;2023-12-20T13:25:46;8.36;73.39
40059;SHT31;25763;49.972;8.568;2023-12-20T13:28:12;8.40;73.51
40059;SHT31;25763;49.972;8.568;2023-12-20T13:30:37;8.30;73.74
40059;SHT31;25763;49.972;8.568;2023-12-20T13:33:04;8.20;73.82
40059;SHT31;25763;49.972;8.568;2023-12-20T13:35:30;8.15;74.49
40059;SHT31;25763;49.972;8.568;2023-12-20T13:37:56;8.17;74.56
40059;SHT31;25763;49.972;8.568;2023-12-20T13:40:21;8.21;74.63
40059;SHT31;25763;49.972;8.568;2023-12-20T13:42:46;8.17;74.67
40059;SHT31;25763;49.972;8.568;2023-12-20T13:45:13;8.12;74.52
40059;SHT31;25763;49.972;8.568;2023-12-20T13:47:38;8.15;75.08
40059;SHT31;25763;49.972;8.568;2023-12-20T13:50:04;8.14;74.91
40059;SHT31;25763;49.972;8.568;2023-12-20T13:52:30;8.10;74.45
40059;SHT31;25763;49.972;8.568;2023-12-20T13:54:55;8.17;74.85
40059;SHT31;25763;49.972;8.568;2023-12-20T13:57:21;8.20;75.38
40059;SHT31;25763;49.972;8.568;2023-12-20T13:59:46;8.17;75.27
40059;SHT31;25763;49.972;8.568;2023-12-20T14:02:11;8.14;75.75
40059;SHT31;25763;49.972;8.568;2023-12-20T14:04:37;8.00;74.68
40059;SHT31;25763;49.972;8.568;2023-12-20T14:07:04;8.03;75.52
40059;SHT31;25763;49.972;8.568;2023-12-20T14:09:30;7.95;75.91
40059;SHT31;25763;49.972;8.568;2023-12-20T14:11:55;7.90;76.01
40059;SHT31;25763;49.972;8.568;2023-12-20T14:14:20;7.90;75.97
40059;SHT31;25763;49.972;8.568;2023-12-20T14:16:46;7.89;75.50
40059;SHT31;25763;49.972;8.568;2023-12-20T14:19:11;7.83;75.65
40059;SHT31;25763;49.972;8.568;2023-12-20T14:21:37;7.86;75.71
40059;SHT31;25763;49.972;8.568;2023-12-20T14:24:02;7.90;76.02
40059;SHT31;25763;49.972;8.568;2023-12-20T14:26:30;7.85;76.01
40059;SHT31;25763;49.972;8.568;2023-12-20T14:28:55;7.85;75.73
40059;SHT31;25763;49.972;8.568;2023-12-20T14:31:20;7.83;76.12
40059;SHT31;25763;49.972;8.568;2023-12-20T14:33:47;7.80;76.20
40059;SHT31;25763;49.972;8.568;2023-12-20T14:36:14;7.85;76.21
40059;SHT31;25763;49.972;8.568;2023-12-20T14:38:39;7.86;75.83
40059;SHT31;25763;49.972;8.568;2023-12-20T14:41:04;7.86;75.77
40059;SHT31;25763;49.972;8.568;2023-12-20T14:43:33;7.86;76.03
40059;SHT31;25763;49.972;8.568;2023-12-20T14:45:59;7.82;75.97
40059;SHT31;25763;49.972;8.568;2023-12-20T14:48:24;7.82;76.35
40059;SHT31;25763;49.972;8.568;2023-12-20T14:50:49;7.82;76.22
40059;SHT31;25763;49.972;8.568;2023-12-20T14:53:16;7.80;76.40
40059;SHT31;25763;49.972;8.568;2023-12-20T14:55:42;7.71;76.57
40059;SHT31;25763;49.972;8.568;2023-12-20T14:58:08;7.69;76.88
40059;SHT31;25763;49.972;8.568;2023-12-20T15:00:33;7.63;76.95
40059;SHT31;25763;49.972;8.568;2023-12-20T15:02:59;7.62;77.15
40059;SHT31;25763;49.972;8.568;2023-12-20T15:05:24;7.53;77.37
40059;SHT31;25763;49.972;8.568;2023-12-20T15:07:50;7.52;77.33
40059;SHT31;25763;49.972;8.568;2023-12-20T15:10:15;7.48;77.51
40059;SHT31;25763;49.972;8.568;2023-12-20T15:12:42;7.44;77.55
40059;SHT31;25763;49.972;8.568;2023-12-20T15:15:08;7.45;77.65
40059;SHT31;25763;49.972;8.568;2023-12-20T15:17:35;7.41;77.56
40059;SHT31;25763;49.972;8.568;2023-12-20T15:20:01;7.36;77.63
40059;SHT31;25763;49.972;8.568;2023-12-20T15:22:26;7.35;77.82
40059;SHT31;25763;49.972;8.568;2023-12-20T15:24:52;7.35;78.01
40059;SHT31;25763;49.972;8.568;2023-12-20T15:27:19;7.30;77.99
40059;SHT31;25763;49.972;8.568;2023-12-20T15:29:45;7.27;78.24
40059;SHT31;25763;49.972;8.568;2023-12-20T15:32:10;7.30;78.16
40059;SHT31;25763;49.972;8.568;2023-12-20T15:34:35;7.24;78.20
40059;SHT31;25763;49.972;8.568;2023-12-20T15:37:00;7.24;78.20
40059;SHT31;25763;49.972;8.568;2023-12-20T15:39:26;7.21;78.18